首页
METAR-TAF:

METAR-TAF

机场 :

哥伦布, 密西西比州, 美国

纬度: 33-39N, 经度: 088-27W, 海拔: 67米

当前天气观测

该预报发布于6分钟前的19:56 UTC
风速5节,风向西转西北
温度 17°C
湿度 32%
气压 1014 hPa
能見度: 16.1公里
天空无云

METAR: KCBM 171956Z AUTO 29005KT 10SM CLR 17/00 A2995 RMK AO2 SLP146 T01731004 $

时间: 14:02 (20:02 UTC)

预报

该预报发布于5小时和2分钟前的15:00 UTC
预报有效从17日的 15点(UTC)到 18日的 21点(UTC)
风速5节,风向
能见度10公里或以上
少量云层高于25000英尺
成为
从 18日的 14点(UTC)到 18日的 15点(UTC)
风速6节,风向多变
能见度10公里或以上
散云层高于2000英尺

TAF: KCBM 171500Z 1715/1821 36005KT 9999 FEW250 QNH2985INS BECMG 1814/1815 VRB06KT 9999 SCT020 QNH2985INS TX15/1719Z TN06/1715Z

超过4000个机场的气象观测和天气预报(METAR&TAF报告)。

可查询的气象台以黄色和红色小点在地图上表示。

将鼠标移到小点上方,可查看气象台名称。

然后点击查看天气观测和预报。

如需切换地图:点击带黑十字的绿色按钮放大地图;点击带横线的绿色按钮缩小地图;或者点击绿色箭头查看邻近地区的地图。


METAR-TAF: